sensor_id;sensor_type;location;lat;lon;timestamp;temperature;humidity
15286;DHT22;7744;52.172;10.668;2022-12-18T00:02:15;-8.60;99.90
15286;DHT22;7744;52.172;10.668;2022-12-18T00:04:40;-8.60;99.90
15286;DHT22;7744;52.172;10.668;2022-12-18T00:07:06;-8.60;99.90
15286;DHT22;7744;52.172;10.668;2022-12-18T00:09:32;-8.70;99.90
15286;DHT22;7744;52.172;10.668;2022-12-18T00:11:57;-8.60;99.90
15286;DHT22;7744;52.172;10.668;2022-12-18T00:14:23;-8.80;1.00
15286;DHT22;7744;52.172;10.668;2022-12-18T00:16:48;-8.80;1.00
15286;DHT22;7744;52.172;10.668;2022-12-18T00:19:14;-8.80;1.00
15286;DHT22;7744;52.172;10.668;2022-12-18T00:21:41;-8.80;1.00
15286;DHT22;7744;52.172;10.668;2022-12-18T00:24:07;-8.80;1.00
15286;DHT22;7744;52.172;10.668;2022-12-18T00:26:34;-8.40;1.00
15286;DHT22;7744;52.172;10.668;2022-12-18T00:29:06;-8.80;1.00
15286;DHT22;7744;52.172;10.668;2022-12-18T00:31:32;-8.70;1.00
15286;DHT22;7744;52.172;10.668;2022-12-18T00:33:58;-8.60;1.00
15286;DHT22;7744;52.172;10.668;2022-12-18T00:36:26;-8.60;1.00
15286;DHT22;7744;52.172;10.668;2022-12-18T00:38:54;-8.60;1.00
15286;DHT22;7744;52.172;10.668;2022-12-18T00:41:20;-8.70;1.00
15286;DHT22;7744;52.172;10.668;2022-12-18T00:44:06;-8.80;1.00
15286;DHT22;7744;52.172;10.668;2022-12-18T00:46:32;-8.90;1.00
15286;DHT22;7744;52.172;10.668;2022-12-18T00:48:58;-8.90;1.00
15286;DHT22;7744;52.172;10.668;2022-12-18T00:51:24;-8.90;1.00
15286;DHT22;7744;52.172;10.668;2022-12-18T00:53:50;-9.00;1.00
15286;DHT22;7744;52.172;10.668;2022-12-18T00:56:16;-8.90;1.00
15286;DHT22;7744;52.172;10.668;2022-12-18T00:58:41;-8.80;62.40
15286;DHT22;7744;52.172;10.668;2022-12-18T01:01:07;-8.70;72.40
15286;DHT22;7744;52.172;10.668;2022-12-18T01:03:33;-8.70;14.60
15286;DHT22;7744;52.172;10.668;2022-12-18T01:05:59;-8.60;96.30
15286;DHT22;7744;52.172;10.668;2022-12-18T01:08:25;-8.60;27.10
15286;DHT22;7744;52.172;10.668;2022-12-18T01:10:50;-8.50;99.90
15286;DHT22;7744;52.172;10.668;2022-12-18T01:13:16;-8.40;95.20
15286;DHT22;7744;52.172;10.668;2022-12-18T01:15:48;-8.60;1.00
15286;DHT22;7744;52.172;10.668;2022-12-18T01:18:14;-8.70;1.00
15286;DHT22;7744;52.172;10.668;2022-12-18T01:20:40;-8.80;1.00
15286;DHT22;7744;52.172;10.668;2022-12-18T01:23:06;-8.90;1.00
15286;DHT22;7744;52.172;10.668;2022-12-18T01:25:31;-8.90;1.00
15286;DHT22;7744;52.172;10.668;2022-12-18T01:27:57;-9.00;1.00
15286;DHT22;7744;52.172;10.668;2022-12-18T01:30:22;-9.10;1.00
15286;DHT22;7744;52.172;10.668;2022-12-18T01:32:48;-9.10;1.00
15286;DHT22;7744;52.172;10.668;2022-12-18T01:35:14;-9.10;1.00
15286;DHT22;7744;52.172;10.668;2022-12-18T01:37:40;-9.00;1.00
15286;DHT22;7744;52.172;10.668;2022-12-18T01:40:06;-9.10;1.00
15286;DHT22;7744;52.172;10.668;2022-12-18T01:42:32;-9.10;1.00
15286;DHT22;7744;52.172;10.668;2022-12-18T01:47:50;-8.90;1.00
15286;DHT22;7744;52.172;10.668;2022-12-18T01:50:27;-8.70;99.90
15286;DHT22;7744;52.172;10.668;2022-12-18T01:55:43;-8.70;1.00
15286;DHT22;7744;52.172;10.668;2022-12-18T01:58:10;-8.80;1.00
15286;DHT22;7744;52.172;10.668;2022-12-18T02:00:35;-8.90;1.00
15286;DHT22;7744;52.172;10.668;2022-12-18T02:03:01;-9.00;1.00
15286;DHT22;7744;52.172;10.668;2022-12-18T02:05:47;-9.10;1.00
15286;DHT22;7744;52.172;10.668;2022-12-18T02:08:37;-9.20;1.00
15286;DHT22;7744;52.172;10.668;2022-12-18T02:11:32;-9.20;1.00
15286;DHT22;7744;52.172;10.668;2022-12-18T02:14:23;-9.30;1.00
15286;DHT22;7744;52.172;10.668;2022-12-18T02:22:46;-9.00;1.00
15286;DHT22;7744;52.172;10.668;2022-12-18T02:25:25;-9.00;1.00
15286;DHT22;7744;52.172;10.668;2022-12-18T02:27:57;-9.10;1.00
15286;DHT22;7744;52.172;10.668;2022-12-18T02:30:23;-9.20;1.00
15286;DHT22;7744;52.172;10.668;2022-12-18T02:32:51;-9.10;1.00
15286;DHT22;7744;52.172;10.668;2022-12-18T02:35:23;-9.00;1.00
15286;DHT22;7744;52.172;10.668;2022-12-18T02:37:51;-9.00;1.00
15286;DHT22;7744;52.172;10.668;2022-12-18T02:40:18;-9.00;1.00
15286;DHT22;7744;52.172;10.668;2022-12-18T02:42:44;-9.10;1.00
15286;DHT22;7744;52.172;10.668;2022-12-18T02:45:10;-9.00;1.00
15286;DHT22;7744;52.172;10.668;2022-12-18T02:47:42;-9.10;1.00
15286;DHT22;7744;52.172;10.668;2022-12-18T02:50:43;-9.10;1.00
15286;DHT22;7744;52.172;10.668;2022-12-18T02:56:18;-9.10;99.90
15286;DHT22;7744;52.172;10.668;2022-12-18T02:59:00;-9.10;99.90
15286;DHT22;7744;52.172;10.668;2022-12-18T03:04:09;-9.30;99.90
15286;DHT22;7744;52.172;10.668;2022-12-18T03:06:41;-9.30;99.90
15286;DHT22;7744;52.172;10.668;2022-12-18T03:09:16;-9.30;99.90
15286;DHT22;7744;52.172;10.668;2022-12-18T03:11:47;-9.40;99.90
15286;DHT22;7744;52.172;10.668;2022-12-18T03:14:34;-9.40;99.90
15286;DHT22;7744;52.172;10.668;2022-12-18T03:17:06;-9.30;1.00
15286;DHT22;7744;52.172;10.668;2022-12-18T03:19:34;-9.10;1.00
15286;DHT22;7744;52.172;10.668;2022-12-18T03:22:02;-9.20;1.00
15286;DHT22;7744;52.172;10.668;2022-12-18T03:24:29;-9.20;1.00
15286;DHT22;7744;52.172;10.668;2022-12-18T03:27:01;-9.10;1.00
15286;DHT22;7744;52.172;10.668;2022-12-18T03:29:33;-9.10;99.90
15286;DHT22;7744;52.172;10.668;2022-12-18T03:32:05;-9.20;99.90
15286;DHT22;7744;52.172;10.668;2022-12-18T03:34:35;-9.10;99.90
15286;DHT22;7744;52.172;10.668;2022-12-18T03:37:02;-9.10;99.90
15286;DHT22;7744;52.172;10.668;2022-12-18T03:39:28;-9.10;99.90
15286;DHT22;7744;52.172;10.668;2022-12-18T03:42:11;-9.20;99.90
15286;DHT22;7744;52.172;10.668;2022-12-18T03:45:23;-9.30;99.90
15286;DHT22;7744;52.172;10.668;2022-12-18T03:48:04;-9.30;99.90
15286;DHT22;7744;52.172;10.668;2022-12-18T03:50:44;-9.50;99.90
15286;DHT22;7744;52.172;10.668;2022-12-18T03:53:22;-9.40;99.90
15286;DHT22;7744;52.172;10.668;2022-12-18T03:55:51;-9.40;99.90
15286;DHT22;7744;52.172;10.668;2022-12-18T03:58:20;-9.30;99.90
15286;DHT22;7744;52.172;10.668;2022-12-18T04:00:49;-9.20;99.90
15286;DHT22;7744;52.172;10.668;2022-12-18T04:03:18;-9.30;99.90
15286;DHT22;7744;52.172;10.668;2022-12-18T04:05:45;-9.20;99.90
15286;DHT22;7744;52.172;10.668;2022-12-18T04:08:12;-9.40;99.90
15286;DHT22;7744;52.172;10.668;2022-12-18T04:10:38;-9.50;99.90
15286;DHT22;7744;52.172;10.668;2022-12-18T04:13:04;-9.40;99.90
15286;DHT22;7744;52.172;10.668;2022-12-18T04:15:33;-9.40;99.90
15286;DHT22;7744;52.172;10.668;2022-12-18T04:17:59;-9.50;99.90
15286;DHT22;7744;52.172;10.668;2022-12-18T04:20:25;-9.60;99.90
15286;DHT22;7744;52.172;10.668;2022-12-18T04:22:51;-9.60;99.90
15286;DHT22;7744;52.172;10.668;2022-12-18T04:25:16;-9.40;99.90
15286;DHT22;7744;52.172;10.668;2022-12-18T04:27:42;-9.30;99.90
15286;DHT22;7744;52.172;10.668;2022-12-18T04:30:08;-9.30;99.90
15286;DHT22;7744;52.172;10.668;2022-12-18T04:32:34;-9.30;99.90
15286;DHT22;7744;52.172;10.668;2022-12-18T04:35:00;-9.30;99.90
15286;DHT22;7744;52.172;10.668;2022-12-18T04:37:25;-9.40;99.90
15286;DHT22;7744;52.172;10.668;2022-12-18T04:39:51;-9.30;99.90
15286;DHT22;7744;52.172;10.668;2022-12-18T04:42:16;-9.20;99.90
15286;DHT22;7744;52.172;10.668;2022-12-18T04:44:42;-9.10;99.90
15286;DHT22;7744;52.172;10.668;2022-12-18T04:47:08;-9.20;99.90
15286;DHT22;7744;52.172;10.668;2022-12-18T04:49:33;-9.10;99.90
15286;DHT22;7744;52.172;10.668;2022-12-18T04:51:59;-9.30;99.90
15286;DHT22;7744;52.172;10.668;2022-12-18T04:54:24;-9.30;99.90
15286;DHT22;7744;52.172;10.668;2022-12-18T04:56:50;-9.40;99.90
15286;DHT22;7744;52.172;10.668;2022-12-18T04:59:16;-9.60;99.90
15286;DHT22;7744;52.172;10.668;2022-12-18T05:01:42;-9.60;99.90
15286;DHT22;7744;52.172;10.668;2022-12-18T05:04:07;-9.70;99.90
15286;DHT22;7744;52.172;10.668;2022-12-18T05:06:33;-9.80;99.90
15286;DHT22;7744;52.172;10.668;2022-12-18T05:08:58;-9.80;99.90
15286;DHT22;7744;52.172;10.668;2022-12-18T05:11:24;-9.80;99.90
15286;DHT22;7744;52.172;10.668;2022-12-18T05:13:50;-9.80;99.90
15286;DHT22;7744;52.172;10.668;2022-12-18T05:16:15;-9.70;99.90
15286;DHT22;7744;52.172;10.668;2022-12-18T05:18:41;-9.70;1.00
15286;DHT22;7744;52.172;10.668;2022-12-18T05:21:07;-9.60;1.00
15286;DHT22;7744;52.172;10.668;2022-12-18T05:23:32;-9.60;1.00
15286;DHT22;7744;52.172;10.668;2022-12-18T05:26:04;-9.60;1.00
15286;DHT22;7744;52.172;10.668;2022-12-18T05:28:32;-9.50;1.00
15286;DHT22;7744;52.172;10.668;2022-12-18T05:30:59;-9.80;1.00
15286;DHT22;7744;52.172;10.668;2022-12-18T05:33:28;-9.90;1.00
15286;DHT22;7744;52.172;10.668;2022-12-18T05:35:55;-10.00;99.90
15286;DHT22;7744;52.172;10.668;2022-12-18T05:38:22;-10.10;99.90
15286;DHT22;7744;52.172;10.668;2022-12-18T05:40:48;-9.90;99.90
15286;DHT22;7744;52.172;10.668;2022-12-18T05:43:15;-9.80;99.90
15286;DHT22;7744;52.172;10.668;2022-12-18T05:45:41;-9.70;99.90
15286;DHT22;7744;52.172;10.668;2022-12-18T05:48:08;-9.70;99.90
15286;DHT22;7744;52.172;10.668;2022-12-18T05:50:35;-9.70;99.90
15286;DHT22;7744;52.172;10.668;2022-12-18T05:53:02;-9.60;99.90
15286;DHT22;7744;52.172;10.668;2022-12-18T05:55:28;-9.00;99.90
15286;DHT22;7744;52.172;10.668;2022-12-18T05:57:53;-9.80;99.90
15286;DHT22;7744;52.172;10.668;2022-12-18T06:00:19;-9.90;99.90
15286;DHT22;7744;52.172;10.668;2022-12-18T06:02:48;-10.00;99.90
15286;DHT22;7744;52.172;10.668;2022-12-18T06:05:14;-9.80;99.90
15286;DHT22;7744;52.172;10.668;2022-12-18T06:07:39;-9.70;1.00
15286;DHT22;7744;52.172;10.668;2022-12-18T06:10:06;-9.90;1.00
15286;DHT22;7744;52.172;10.668;2022-12-18T06:12:31;-9.90;1.00
15286;DHT22;7744;52.172;10.668;2022-12-18T06:14:59;-9.80;1.00
15286;DHT22;7744;52.172;10.668;2022-12-18T06:17:28;-9.80;1.00
15286;DHT22;7744;52.172;10.668;2022-12-18T06:19:54;-9.80;1.00
15286;DHT22;7744;52.172;10.668;2022-12-18T06:22:20;-9.80;1.00
15286;DHT22;7744;52.172;10.668;2022-12-18T06:24:46;-9.70;1.00
15286;DHT22;7744;52.172;10.668;2022-12-18T06:27:11;-9.80;1.00
15286;DHT22;7744;52.172;10.668;2022-12-18T06:29:37;-9.20;1.00
15286;DHT22;7744;52.172;10.668;2022-12-18T06:32:03;-9.70;1.00
15286;DHT22;7744;52.172;10.668;2022-12-18T06:34:28;-9.80;1.00
15286;DHT22;7744;52.172;10.668;2022-12-18T06:36:54;-9.80;1.00
15286;DHT22;7744;52.172;10.668;2022-12-18T06:39:20;-9.80;1.00
15286;DHT22;7744;52.172;10.668;2022-12-18T06:41:45;-9.70;1.00
15286;DHT22;7744;52.172;10.668;2022-12-18T06:44:11;-9.70;1.00
15286;DHT22;7744;52.172;10.668;2022-12-18T06:46:36;-9.70;1.00
15286;DHT22;7744;52.172;10.668;2022-12-18T06:49:03;-9.60;1.00
15286;DHT22;7744;52.172;10.668;2022-12-18T06:51:29;-9.70;1.00
15286;DHT22;7744;52.172;10.668;2022-12-18T06:53:55;-9.70;1.00
15286;DHT22;7744;52.172;10.668;2022-12-18T06:56:20;-9.80;1.00
15286;DHT22;7744;52.172;10.668;2022-12-18T06:58:46;-9.90;1.00
15286;DHT22;7744;52.172;10.668;2022-12-18T07:01:12;-10.00;99.90
15286;DHT22;7744;52.172;10.668;2022-12-18T07:03:40;-9.80;99.90
15286;DHT22;7744;52.172;10.668;2022-12-18T07:06:06;-9.70;99.90
15286;DHT22;7744;52.172;10.668;2022-12-18T07:08:37;-9.70;99.90
15286;DHT22;7744;52.172;10.668;2022-12-18T07:11:04;-9.90;99.90
15286;DHT22;7744;52.172;10.668;2022-12-18T07:13:30;-9.80;99.90
15286;DHT22;7744;52.172;10.668;2022-12-18T07:16:02;-9.90;99.90
15286;DHT22;7744;52.172;10.668;2022-12-18T07:18:27;-10.00;99.90
15286;DHT22;7744;52.172;10.668;2022-12-18T07:20:53;-9.80;99.90
15286;DHT22;7744;52.172;10.668;2022-12-18T07:23:18;-9.60;99.90
15286;DHT22;7744;52.172;10.668;2022-12-18T07:25:44;-9.60;99.90
15286;DHT22;7744;52.172;10.668;2022-12-18T07:28:10;-9.70;99.90
15286;DHT22;7744;52.172;10.668;2022-12-18T07:30:37;-9.70;99.90
15286;DHT22;7744;52.172;10.668;2022-12-18T07:33:03;-9.70;99.90
15286;DHT22;7744;52.172;10.668;2022-12-18T07:35:29;-9.80;99.90
15286;DHT22;7744;52.172;10.668;2022-12-18T07:37:54;-9.90;99.90
15286;DHT22;7744;52.172;10.668;2022-12-18T07:40:20;-9.90;99.90
15286;DHT22;7744;52.172;10.668;2022-12-18T07:42:46;-10.00;99.90
15286;DHT22;7744;52.172;10.668;2022-12-18T07:45:11;-9.90;99.90
15286;DHT22;7744;52.172;10.668;2022-12-18T07:47:37;-9.90;99.90
15286;DHT22;7744;52.172;10.668;2022-12-18T07:50:03;-10.00;99.90
15286;DHT22;7744;52.172;10.668;2022-12-18T07:52:29;-10.00;99.90
15286;DHT22;7744;52.172;10.668;2022-12-18T07:54:55;-10.00;99.90
15286;DHT22;7744;52.172;10.668;2022-12-18T07:57:21;-10.00;99.90
15286;DHT22;7744;52.172;10.668;2022-12-18T07:59:46;-10.00;99.90
15286;DHT22;7744;52.172;10.668;2022-12-18T08:02:12;-9.90;99.90
15286;DHT22;7744;52.172;10.668;2022-12-18T08:04:37;-9.70;99.90
15286;DHT22;7744;52.172;10.668;2022-12-18T08:07:03;-9.60;99.90
15286;DHT22;7744;52.172;10.668;2022-12-18T08:09:29;-9.80;99.90
15286;DHT22;7744;52.172;10.668;2022-12-18T08:11:54;-9.60;99.90
15286;DHT22;7744;52.172;10.668;2022-12-18T08:14:20;-9.70;99.90
15286;DHT22;7744;52.172;10.668;2022-12-18T08:16:45;-9.60;99.90
15286;DHT22;7744;52.172;10.668;2022-12-18T08:19:11;-9.90;99.90
15286;DHT22;7744;52.172;10.668;2022-12-18T08:21:37;-9.80;99.90
15286;DHT22;7744;52.172;10.668;2022-12-18T08:24:03;-9.70;99.90
15286;DHT22;7744;52.172;10.668;2022-12-18T08:26:30;-9.70;99.90
15286;DHT22;7744;52.172;10.668;2022-12-18T08:28:57;-9.70;99.90
15286;DHT22;7744;52.172;10.668;2022-12-18T08:31:24;-9.60;99.90
15286;DHT22;7744;52.172;10.668;2022-12-18T08:33:51;-9.60;99.90
15286;DHT22;7744;52.172;10.668;2022-12-18T08:36:18;-9.50;99.90
15286;DHT22;7744;52.172;10.668;2022-12-18T08:38:44;-9.40;99.90
15286;DHT22;7744;52.172;10.668;2022-12-18T08:41:12;-9.40;99.90
15286;DHT22;7744;52.172;10.668;2022-12-18T08:43:38;-9.40;99.90
15286;DHT22;7744;52.172;10.668;2022-12-18T08:46:24;-9.20;99.90
15286;DHT22;7744;52.172;10.668;2022-12-18T08:48:51;-9.20;99.90
15286;DHT22;7744;52.172;10.668;2022-12-18T08:51:17;-9.10;99.90
15286;DHT22;7744;52.172;10.668;2022-12-18T08:53:44;-9.00;99.90
15286;DHT22;7744;52.172;10.668;2022-12-18T08:56:10;-8.80;99.90
15286;DHT22;7744;52.172;10.668;2022-12-18T08:58:36;-8.70;99.90
15286;DHT22;7744;52.172;10.668;2022-12-18T09:01:03;-8.60;99.90
15286;DHT22;7744;52.172;10.668;2022-12-18T09:03:30;-7.70;99.90
15286;DHT22;7744;52.172;10.668;2022-12-18T09:05:55;-8.50;99.90
15286;DHT22;7744;52.172;10.668;2022-12-18T09:08:21;-8.30;99.90
15286;DHT22;7744;52.172;10.668;2022-12-18T09:10:49;-8.40;99.90
15286;DHT22;7744;52.172;10.668;2022-12-18T09:13:15;-8.40;99.90
15286;DHT22;7744;52.172;10.668;2022-12-18T09:15:46;-8.30;99.90
15286;DHT22;7744;52.172;10.668;2022-12-18T09:18:14;-8.30;99.90
15286;DHT22;7744;52.172;10.668;2022-12-18T09:20:40;-8.30;99.90
15286;DHT22;7744;52.172;10.668;2022-12-18T09:23:06;-8.10;99.90
15286;DHT22;7744;52.172;10.668;2022-12-18T09:25:33;-8.10;99.90
15286;DHT22;7744;52.172;10.668;2022-12-18T09:28:05;-8.00;99.90
15286;DHT22;7744;52.172;10.668;2022-12-18T09:30:31;-7.90;99.90
15286;DHT22;7744;52.172;10.668;2022-12-18T09:32:58;-7.80;1.00
15286;DHT22;7744;52.172;10.668;2022-12-18T09:35:24;-7.70;1.00
15286;DHT22;7744;52.172;10.668;2022-12-18T09:37:50;-7.60;1.00
15286;DHT22;7744;52.172;10.668;2022-12-18T09:40:19;-7.40;1.00
15286;DHT22;7744;52.172;10.668;2022-12-18T09:42:54;-7.30;1.00
15286;DHT22;7744;52.172;10.668;2022-12-18T09:45:21;-7.20;99.90
15286;DHT22;7744;52.172;10.668;2022-12-18T09:47:49;-7.10;99.90
15286;DHT22;7744;52.172;10.668;2022-12-18T09:52:53;-6.90;99.90
15286;DHT22;7744;52.172;10.668;2022-12-18T09:55:37;-6.90;99.90
15286;DHT22;7744;52.172;10.668;2022-12-18T09:58:26;-6.80;99.90
15286;DHT22;7744;52.172;10.668;2022-12-18T10:00:54;-5.90;99.90
15286;DHT22;7744;52.172;10.668;2022-12-18T10:03:20;-6.80;99.90
15286;DHT22;7744;52.172;10.668;2022-12-18T10:06:02;-6.70;99.90
15286;DHT22;7744;52.172;10.668;2022-12-18T10:14:26;-6.50;99.90
15286;DHT22;7744;52.172;10.668;2022-12-18T10:17:00;-6.20;99.90
15286;DHT22;7744;52.172;10.668;2022-12-18T10:19:43;-6.00;1.00
15286;DHT22;7744;52.172;10.668;2022-12-18T10:22:48;-6.00;99.90
15286;DHT22;7744;52.172;10.668;2022-12-18T10:25:29;-5.90;1.00
15286;DHT22;7744;52.172;10.668;2022-12-18T10:28:00;-5.60;1.00
15286;DHT22;7744;52.172;10.668;2022-12-18T10:30:30;-5.50;99.90
15286;DHT22;7744;52.172;10.668;2022-12-18T10:33:01;-5.50;99.90
15286;DHT22;7744;52.172;10.668;2022-12-18T10:35:27;-5.40;99.90
15286;DHT22;7744;52.172;10.668;2022-12-18T10:43:30;-5.30;99.90
15286;DHT22;7744;52.172;10.668;2022-12-18T10:46:12;-5.20;99.90
15286;DHT22;7744;52.172;10.668;2022-12-18T10:48:55;-5.20;99.90
15286;DHT22;7744;52.172;10.668;2022-12-18T10:53:59;-5.00;99.90
15286;DHT22;7744;52.172;10.668;2022-12-18T10:56:27;-5.00;99.90
15286;DHT22;7744;52.172;10.668;2022-12-18T10:58:58;-5.00;99.90
15286;DHT22;7744;52.172;10.668;2022-12-18T11:01:24;-4.90;99.90
15286;DHT22;7744;52.172;10.668;2022-12-18T11:06:17;-4.70;99.90
15286;DHT22;7744;52.172;10.668;2022-12-18T11:08:57;-4.70;99.90
15286;DHT22;7744;52.172;10.668;2022-12-18T11:11:23;-4.50;99.90
15286;DHT22;7744;52.172;10.668;2022-12-18T11:14:17;-4.30;99.90
15286;DHT22;7744;52.172;10.668;2022-12-18T11:16:46;-4.30;99.90
15286;DHT22;7744;52.172;10.668;2022-12-18T11:21:58;-4.10;99.90
15286;DHT22;7744;52.172;10.668;2022-12-18T11:24:27;-4.00;99.90
15286;DHT22;7744;52.172;10.668;2022-12-18T11:26:54;-3.90;99.90
15286;DHT22;7744;52.172;10.668;2022-12-18T11:29:28;-4.10;99.90
15286;DHT22;7744;52.172;10.668;2022-12-18T11:35:07;-3.90;99.90
15286;DHT22;7744;52.172;10.668;2022-12-18T11:37:34;-4.00;99.90
15286;DHT22;7744;52.172;10.668;2022-12-18T11:40:11;-4.00;99.90
15286;DHT22;7744;52.172;10.668;2022-12-18T11:42:46;-3.90;99.90
15286;DHT22;7744;52.172;10.668;2022-12-18T11:50:31;-3.90;99.90
15286;DHT22;7744;52.172;10.668;2022-12-18T11:52:57;-3.80;99.90
15286;DHT22;7744;52.172;10.668;2022-12-18T12:00:46;-3.70;99.90
15286;DHT22;7744;52.172;10.668;2022-12-18T12:03:26;-3.70;99.90
15286;DHT22;7744;52.172;10.668;2022-12-18T12:06:07;-3.70;99.90
15286;DHT22;7744;52.172;10.668;2022-12-18T12:14:25;-3.30;99.90
15286;DHT22;7744;52.172;10.668;2022-12-18T12:19:50;-3.00;99.90
15286;DHT22;7744;52.172;10.668;2022-12-18T12:22:35;-2.90;99.90
15286;DHT22;7744;52.172;10.668;2022-12-18T12:33:43;-2.80;99.90
15286;DHT22;7744;52.172;10.668;2022-12-18T12:38:51;-2.80;99.90
15286;DHT22;7744;52.172;10.668;2022-12-18T12:41:31;-2.70;99.90
15286;DHT22;7744;52.172;10.668;2022-12-18T12:44:24;-2.70;99.90
15286;DHT22;7744;52.172;10.668;2022-12-18T12:46:52;-2.80;99.90
15286;DHT22;7744;52.172;10.668;2022-12-18T12:49:26;-2.90;99.90
15286;DHT22;7744;52.172;10.668;2022-12-18T12:52:03;-2.90;99.90
15286;DHT22;7744;52.172;10.668;2022-12-18T12:54:32;-3.00;99.90
15286;DHT22;7744;52.172;10.668;2022-12-18T12:57:19;-3.10;99.90
15286;DHT22;7744;52.172;10.668;2022-12-18T13:00:05;-3.20;99.90
15286;DHT22;7744;52.172;10.668;2022-12-18T13:05:51;-3.10;99.90
15286;DHT22;7744;52.172;10.668;2022-12-18T13:08:32;-3.10;99.90
15286;DHT22;7744;52.172;10.668;2022-12-18T13:14:23;-3.30;99.90
15286;DHT22;7744;52.172;10.668;2022-12-18T13:16:49;-3.30;99.90
15286;DHT22;7744;52.172;10.668;2022-12-18T13:19:26;-3.60;99.90
15286;DHT22;7744;52.172;10.668;2022-12-18T13:21:54;-3.60;99.90
15286;DHT22;7744;52.172;10.668;2022-12-18T13:24:28;-4.00;99.90
15286;DHT22;7744;52.172;10.668;2022-12-18T13:26:56;-4.00;99.90
15286;DHT22;7744;52.172;10.668;2022-12-18T13:29:48;-4.00;99.90
15286;DHT22;7744;52.172;10.668;2022-12-18T13:32:24;-4.20;99.90
15286;DHT22;7744;52.172;10.668;2022-12-18T13:37:55;-4.30;99.90
15286;DHT22;7744;52.172;10.668;2022-12-18T13:43:35;-4.50;99.90
15286;DHT22;7744;52.172;10.668;2022-12-18T13:48:33;-3.80;99.90
15286;DHT22;7744;52.172;10.668;2022-12-18T13:51:06;-4.50;99.90
15286;DHT22;7744;52.172;10.668;2022-12-18T13:56:04;-4.60;99.90
15286;DHT22;7744;52.172;10.668;2022-12-18T13:58:30;-4.60;99.90
15286;DHT22;7744;52.172;10.668;2022-12-18T14:00:56;-4.60;99.90
15286;DHT22;7744;52.172;10.668;2022-12-18T14:03:27;-4.70;99.90
15286;DHT22;7744;52.172;10.668;2022-12-18T14:06:07;-3.70;99.90
15286;DHT22;7744;52.172;10.668;2022-12-18T14:08:38;-4.60;99.90
15286;DHT22;7744;52.172;10.668;2022-12-18T14:11:07;-4.60;99.90
15286;DHT22;7744;52.172;10.668;2022-12-18T14:13:43;-4.70;99.90
15286;DHT22;7744;52.172;10.668;2022-12-18T14:16:14;-4.70;99.90
15286;DHT22;7744;52.172;10.668;2022-12-18T14:23:46;-4.70;99.90
15286;DHT22;7744;52.172;10.668;2022-12-18T14:26:28;-4.70;99.90
15286;DHT22;7744;52.172;10.668;2022-12-18T14:28:59;-3.90;99.90
15286;DHT22;7744;52.172;10.668;2022-12-18T14:31:29;-4.90;99.90
15286;DHT22;7744;52.172;10.668;2022-12-18T14:33:55;-4.80;99.90
15286;DHT22;7744;52.172;10.668;2022-12-18T14:36:24;-4.90;99.90
15286;DHT22;7744;52.172;10.668;2022-12-18T14:38:52;-4.90;99.90
15286;DHT22;7744;52.172;10.668;2022-12-18T14:41:20;-4.90;99.90
15286;DHT22;7744;52.172;10.668;2022-12-18T14:43:48;-5.00;99.90
15286;DHT22;7744;52.172;10.668;2022-12-18T14:48:59;-3.10;99.90
15286;DHT22;7744;52.172;10.668;2022-12-18T14:51:27;-5.00;99.90
15286;DHT22;7744;52.172;10.668;2022-12-18T14:53:56;-5.00;99.90
15286;DHT22;7744;52.172;10.668;2022-12-18T14:56:25;-5.00;99.90
15286;DHT22;7744;52.172;10.668;2022-12-18T14:58:58;-5.00;99.90
15286;DHT22;7744;52.172;10.668;2022-12-18T15:01:27;-5.10;99.90
15286;DHT22;7744;52.172;10.668;2022-12-18T15:03:54;-5.00;99.90
15286;DHT22;7744;52.172;10.668;2022-12-18T15:06:27;-5.00;99.90
15286;DHT22;7744;52.172;10.668;2022-12-18T15:08:53;-4.80;99.90
15286;DHT22;7744;52.172;10.668;2022-12-18T15:16:58;-5.00;99.90
15286;DHT22;7744;52.172;10.668;2022-12-18T15:19:43;-4.80;99.90
15286;DHT22;7744;52.172;10.668;2022-12-18T15:22:30;-4.90;99.90
15286;DHT22;7744;52.172;10.668;2022-12-18T15:24:58;-4.90;99.90
15286;DHT22;7744;52.172;10.668;2022-12-18T15:27:34;-4.90;99.90
15286;DHT22;7744;52.172;10.668;2022-12-18T15:30:23;-5.00;99.90
15286;DHT22;7744;52.172;10.668;2022-12-18T15:32:48;-5.00;99.90
15286;DHT22;7744;52.172;10.668;2022-12-18T15:35:25;-4.90;99.90
15286;DHT22;7744;52.172;10.668;2022-12-18T15:37:52;-5.00;99.90
15286;DHT22;7744;52.172;10.668;2022-12-18T15:40:20;-5.00;99.90
15286;DHT22;7744;52.172;10.668;2022-12-18T15:42:47;-5.00;99.90
15286;DHT22;7744;52.172;10.668;2022-12-18T15:45:31;-4.90;99.90
15286;DHT22;7744;52.172;10.668;2022-12-18T15:47:57;-4.90;99.90
15286;DHT22;7744;52.172;10.668;2022-12-18T15:50:23;-4.80;99.90
15286;DHT22;7744;52.172;10.668;2022-12-18T15:52:50;-4.80;99.90
15286;DHT22;7744;52.172;10.668;2022-12-18T15:55:19;-4.70;98.00
15286;DHT22;7744;52.172;10.668;2022-12-18T15:58:04;-4.80;94.90
15286;DHT22;7744;52.172;10.668;2022-12-18T16:00:31;-4.80;96.40
15286;DHT22;7744;52.172;10.668;2022-12-18T16:02:57;-4.90;99.90
15286;DHT22;7744;52.172;10.668;2022-12-18T16:05:23;-4.80;99.90
15286;DHT22;7744;52.172;10.668;2022-12-18T16:07:49;-4.70;99.00
15286;DHT22;7744;52.172;10.668;2022-12-18T16:10:15;-4.70;99.90
15286;DHT22;7744;52.172;10.668;2022-12-18T16:12:41;-4.70;92.40
15286;DHT22;7744;52.172;10.668;2022-12-18T16:15:08;-4.80;95.10
15286;DHT22;7744;52.172;10.668;2022-12-18T16:17:35;-4.90;94.30
15286;DHT22;7744;52.172;10.668;2022-12-18T16:20:00;-4.90;97.50
15286;DHT22;7744;52.172;10.668;2022-12-18T16:22:29;-4.90;98.80
15286;DHT22;7744;52.172;10.668;2022-12-18T16:24:56;-4.90;96.50
15286;DHT22;7744;52.172;10.668;2022-12-18T16:27:22;-4.90;96.20
15286;DHT22;7744;52.172;10.668;2022-12-18T16:29:48;-4.90;94.40
15286;DHT22;7744;52.172;10.668;2022-12-18T16:32:17;-4.90;95.80
15286;DHT22;7744;52.172;10.668;2022-12-18T16:34:43;-5.00;95.40
15286;DHT22;7744;52.172;10.668;2022-12-18T16:37:11;-5.00;96.80
15286;DHT22;7744;52.172;10.668;2022-12-18T16:39:38;-5.00;99.90
15286;DHT22;7744;52.172;10.668;2022-12-18T16:42:15;-5.00;99.90
15286;DHT22;7744;52.172;10.668;2022-12-18T16:44:42;-4.70;98.00
15286;DHT22;7744;52.172;10.668;2022-12-18T16:47:08;-5.00;99.90
15286;DHT22;7744;52.172;10.668;2022-12-18T16:49:33;-5.00;99.90
15286;DHT22;7744;52.172;10.668;2022-12-18T16:52:00;-4.90;99.90
15286;DHT22;7744;52.172;10.668;2022-12-18T16:54:26;-4.80;99.90
15286;DHT22;7744;52.172;10.668;2022-12-18T16:56:55;-4.90;99.90
15286;DHT22;7744;52.172;10.668;2022-12-18T16:59:20;-5.00;99.90
15286;DHT22;7744;52.172;10.668;2022-12-18T17:01:46;-5.00;99.90
15286;DHT22;7744;52.172;10.668;2022-12-18T17:04:12;-5.00;99.90
15286;DHT22;7744;52.172;10.668;2022-12-18T17:06:40;-5.00;99.90
15286;DHT22;7744;52.172;10.668;2022-12-18T17:09:09;-5.00;99.90
15286;DHT22;7744;52.172;10.668;2022-12-18T17:11:35;-5.00;99.90
15286;DHT22;7744;52.172;10.668;2022-12-18T17:14:09;-5.00;99.90
15286;DHT22;7744;52.172;10.668;2022-12-18T17:16:34;-5.00;99.90
15286;DHT22;7744;52.172;10.668;2022-12-18T17:19:00;-5.00;99.90
15286;DHT22;7744;52.172;10.668;2022-12-18T17:21:26;-4.90;99.90
15286;DHT22;7744;52.172;10.668;2022-12-18T17:23:51;-4.90;99.90
15286;DHT22;7744;52.172;10.668;2022-12-18T17:26:17;-4.80;99.90
15286;DHT22;7744;52.172;10.668;2022-12-18T17:28:42;-4.80;99.90
15286;DHT22;7744;52.172;10.668;2022-12-18T17:31:13;-4.70;99.90
15286;DHT22;7744;52.172;10.668;2022-12-18T17:33:41;-4.50;99.90